createdAt,value
2022-12-03T00:00:14.599Z,5.93
2022-12-03T00:04:17.336Z,4.30
2022-12-03T00:08:20.137Z,4.97
2022-12-03T00:12:22.840Z,3.95
2022-12-03T00:16:27.076Z,3.40
2022-12-03T00:20:29.828Z,4.60
2022-12-03T00:24:32.499Z,6.47
2022-12-03T00:28:35.201Z,5.10
2022-12-03T00:32:39.254Z,5.65
2022-12-03T00:36:41.961Z,4.00
2022-12-03T00:40:44.823Z,5.20
2022-12-03T00:44:47.477Z,5.32
2022-12-03T00:48:51.480Z,5.00
2022-12-03T00:52:54.131Z,6.03
2022-12-03T00:56:56.791Z,4.55
2022-12-03T01:00:59.630Z,3.30
2022-12-03T01:05:03.979Z,3.80
2022-12-03T01:09:06.742Z,5.32
2022-12-03T01:13:09.395Z,3.85
2022-12-03T01:17:12.402Z,6.05
2022-12-03T01:21:16.472Z,6.03
2022-12-03T01:25:19.281Z,3.67
2022-12-03T01:29:21.984Z,5.05
2022-12-03T01:33:24.682Z,3.05
2022-12-03T01:37:28.993Z,3.97
2022-12-03T01:41:32.669Z,4.07
2022-12-03T01:45:35.333Z,5.95
2022-12-03T01:49:41.800Z,4.38
2022-12-03T01:53:47.001Z,6.50
2022-12-03T01:57:52.416Z,3.10
2022-12-03T02:01:55.170Z,5.18
2022-12-03T02:05:57.904Z,4.88
2022-12-03T02:10:03.644Z,5.65
2022-12-03T02:14:08.603Z,8.43
2022-12-03T02:18:11.656Z,5.03
2022-12-03T02:22:24.190Z,3.75
2022-12-03T02:26:29.738Z,6.35
2022-12-03T02:30:33.477Z,5.65
2022-12-03T02:34:40.933Z,3.20
2022-12-03T02:38:45.405Z,3.90
2022-12-03T02:42:52.187Z,4.50
2022-12-03T02:46:54.944Z,3.10
2022-12-03T02:51:01.344Z,4.32
2022-12-03T02:55:07.351Z,3.92
2022-12-03T02:59:11.465Z,5.80
2022-12-03T03:03:14.542Z,5.65
2022-12-03T03:07:17.717Z,3.83
2022-12-03T03:11:20.500Z,6.45
2022-12-03T03:15:25.309Z,4.80
2022-12-03T03:19:28.067Z,5.43
2022-12-03T03:23:30.791Z,5.40
2022-12-03T03:27:34.252Z,5.15
2022-12-03T03:31:39.306Z,5.35
2022-12-03T03:35:43.233Z,8.05
2022-12-03T03:39:45.989Z,5.55
2022-12-03T03:43:50.937Z,3.63
2022-12-03T03:47:55.669Z,5.75
2022-12-03T03:51:58.325Z,5.60
2022-12-03T03:56:01.018Z,3.83
2022-12-03T04:00:06.432Z,3.70
2022-12-03T04:04:19.294Z,4.93
2022-12-03T04:08:22.002Z,7.03
2022-12-03T04:12:42.400Z,4.82
2022-12-03T04:16:45.219Z,3.30
2022-12-03T04:20:49.285Z,3.95
2022-12-03T04:24:52.194Z,4.65
2022-12-03T04:28:54.211Z,4.25
2022-12-03T04:33:14.276Z,4.22
2022-12-03T04:37:18.300Z,4.97
2022-12-03T04:41:20.944Z,3.97
2022-12-03T04:45:23.661Z,5.78
2022-12-03T04:49:26.770Z,6.05
2022-12-03T04:53:30.792Z,4.68
2022-12-03T04:57:33.459Z,5.45
2022-12-03T05:01:36.190Z,7.05
2022-12-03T05:05:39.038Z,3.78
2022-12-03T05:09:43.024Z,4.20
2022-12-03T05:13:45.677Z,5.05
2022-12-03T05:17:48.364Z,3.28
2022-12-03T05:21:51.025Z,6.05
2022-12-03T05:25:55.357Z,3.55
2022-12-03T05:29:58.049Z,3.40
2022-12-03T05:34:00.663Z,6.20
2022-12-03T05:38:03.380Z,3.05
2022-12-03T05:42:25.040Z,3.72
2022-12-03T05:46:27.765Z,4.07
2022-12-03T05:50:33.230Z,5.45
2022-12-03T05:54:35.875Z,4.13
2022-12-03T05:58:39.933Z,4.20
2022-12-03T06:02:43.061Z,5.35
2022-12-03T06:06:45.868Z,4.63
2022-12-03T06:10:48.657Z,4.07
2022-12-03T06:14:54.911Z,6.78
2022-12-03T06:18:57.933Z,5.95
2022-12-03T06:23:00.605Z,4.95
2022-12-03T06:27:03.357Z,3.47
2022-12-03T06:31:07.941Z,3.88
2022-12-03T06:35:10.826Z,3.92
2022-12-03T06:39:13.827Z,6.07
2022-12-03T06:43:16.533Z,5.45
2022-12-03T06:47:20.536Z,2.95
2022-12-03T06:51:23.172Z,4.40
2022-12-03T06:55:25.828Z,4.60
2022-12-03T06:59:28.487Z,3.90
2022-12-03T07:03:32.527Z,4.65
2022-12-03T07:07:35.266Z,3.78
2022-12-03T07:11:40.919Z,2.97
2022-12-03T07:15:43.730Z,2.65
2022-12-03T07:19:47.978Z,3.05
2022-12-03T07:23:50.646Z,4.57
2022-12-03T07:27:53.327Z,3.13
2022-12-03T07:31:56.189Z,3.78
2022-12-03T07:36:00.287Z,3.58
2022-12-03T07:40:03.589Z,4.60
2022-12-03T07:53:32.906Z,2.63
2022-12-03T07:57:35.787Z,2.90
2022-12-03T08:01:38.802Z,2.50
2022-12-03T08:05:41.825Z,4.47
2022-12-03T08:09:46.265Z,3.08
2022-12-03T08:13:48.940Z,1.77
2022-12-03T08:17:56.656Z,1.10
2022-12-03T08:22:01.575Z,2.78
2022-12-03T08:26:13.933Z,1.58
2022-12-03T08:30:18.939Z,1.98
2022-12-03T08:34:23.305Z,3.13
2022-12-03T08:38:26.011Z,1.73
2022-12-03T08:42:44.866Z,0.50
2022-12-03T08:46:51.230Z,1.15
2022-12-03T08:50:55.430Z,2.15
2022-12-03T08:54:58.202Z,2.08
2022-12-03T08:59:16.664Z,0.40
2022-12-03T09:03:20.349Z,1.00
2022-12-03T09:07:22.939Z,1.30
2022-12-03T09:11:25.765Z,2.75
2022-12-03T09:15:29.725Z,1.38
2022-12-03T09:19:32.376Z,1.48
2022-12-03T09:23:34.982Z,1.40
2022-12-03T09:27:37.983Z,1.10
2022-12-03T09:31:42.341Z,0.40
2022-12-03T09:35:45.081Z,0.65
2022-12-03T09:39:47.735Z,0.35
2022-12-03T09:44:03.949Z,0.47
2022-12-03T09:48:09.055Z,0.80
2022-12-03T09:52:17.917Z,1.38
2022-12-03T09:56:23.853Z,0.73
2022-12-03T10:00:29.119Z,0.65
2022-12-03T10:04:33.189Z,0.85
2022-12-03T10:08:35.845Z,2.47
2022-12-03T10:12:38.557Z,1.35
2022-12-03T10:16:42.645Z,1.85
2022-12-03T10:20:47.329Z,0.65
2022-12-03T10:25:07.614Z,0.85
2022-12-03T10:29:13.990Z,0.70
2022-12-03T10:33:19.262Z,0.90
2022-12-03T10:37:23.880Z,1.17
2022-12-03T10:41:28.426Z,1.38
2022-12-03T10:45:31.087Z,2.47
2022-12-03T10:49:34.636Z,1.00
2022-12-03T10:53:40.904Z,2.95
2022-12-03T10:57:45.913Z,1.52
2022-12-03T11:01:49.915Z,1.67
2022-12-03T11:05:53.675Z,1.17
2022-12-03T11:09:58.816Z,1.23
2022-12-03T11:14:03.017Z,2.00
2022-12-03T11:18:05.708Z,1.85
2022-12-03T11:22:45.723Z,0.77
2022-12-03T11:27:20.730Z,0.93
2022-12-03T11:31:39.047Z,1.23
2022-12-03T11:36:31.657Z,0.93
2022-12-03T11:40:39.889Z,1.63
2022-12-03T11:44:44.007Z,1.02
2022-12-03T11:48:48.015Z,0.57
2022-12-03T11:52:54.711Z,1.70
2022-12-03T12:01:03.047Z,2.22
2022-12-03T12:05:25.393Z,1.38
2022-12-03T12:09:54.290Z,0.60
2022-12-03T12:13:58.785Z,1.70
2022-12-03T12:18:36.143Z,0.68
2022-12-03T12:22:39.581Z,1.52
2022-12-03T12:26:51.414Z,1.38
2022-12-03T12:30:54.210Z,0.57
2022-12-03T12:35:03.179Z,1.88
2022-12-03T12:39:09.077Z,0.40
2022-12-03T12:43:24.966Z,0.70
2022-12-03T12:47:31.022Z,0.60
2022-12-03T12:51:35.241Z,1.70
2022-12-03T12:55:38.742Z,4.47
2022-12-03T12:59:41.685Z,2.63
2022-12-03T13:03:44.628Z,0.70
2022-12-03T13:07:49.287Z,1.98
2022-12-03T13:11:54.891Z,1.40
2022-12-03T13:16:04.000Z,0.40
2022-12-03T13:20:18.838Z,0.80
2022-12-03T13:24:35.157Z,1.35
2022-12-03T13:28:37.898Z,1.35
2022-12-03T13:32:43.044Z,1.50
2022-12-03T13:36:51.941Z,1.10
2022-12-03T13:41:02.991Z,1.88
2022-12-03T13:45:30.961Z,1.30
2022-12-03T13:49:35.681Z,1.85
2022-12-03T13:53:41.080Z,0.73
2022-12-03T13:57:45.132Z,1.02
2022-12-03T14:01:47.904Z,1.65
2022-12-03T14:05:50.713Z,0.63
2022-12-03T14:09:53.679Z,1.42
2022-12-03T14:13:57.962Z,1.73
2022-12-03T14:18:00.817Z,0.60
2022-12-03T14:22:03.549Z,0.57
2022-12-03T14:26:06.445Z,0.60
2022-12-03T14:30:11.995Z,1.52
2022-12-03T14:34:14.647Z,0.57
2022-12-03T14:38:17.374Z,0.28
2022-12-03T14:42:20.040Z,1.08
2022-12-03T14:46:24.215Z,1.08
2022-12-03T14:50:27.243Z,1.85
2022-12-03T14:54:30.258Z,1.00
2022-12-03T14:58:34.405Z,0.85
2022-12-03T15:02:38.608Z,1.88
2022-12-03T15:06:41.541Z,2.78
2022-12-03T15:10:44.538Z,1.08
2022-12-03T15:14:47.603Z,2.17
2022-12-03T15:18:51.676Z,0.73
2022-12-03T15:22:54.514Z,2.88
2022-12-03T15:26:57.824Z,2.85
2022-12-03T15:31:00.631Z,2.50
2022-12-03T15:35:05.262Z,1.75
2022-12-03T15:39:07.991Z,1.85
2022-12-03T15:43:11.249Z,1.00
2022-12-03T15:47:14.072Z,1.10
2022-12-03T15:51:18.133Z,3.70
2022-12-03T15:55:21.141Z,7.40
2022-12-03T15:59:23.883Z,5.80
2022-12-03T16:03:26.694Z,4.75
2022-12-03T16:07:30.935Z,6.38
2022-12-03T16:11:33.711Z,4.07
2022-12-03T16:15:36.543Z,3.97
2022-12-03T16:19:39.305Z,4.70
2022-12-03T16:23:43.509Z,5.40
2022-12-03T16:27:46.283Z,4.63
2022-12-03T16:31:48.912Z,5.53
2022-12-03T16:35:51.600Z,6.07
2022-12-03T16:39:55.921Z,3.47
2022-12-03T16:44:01.441Z,5.75
2022-12-03T16:48:04.269Z,4.40
2022-12-03T16:52:06.993Z,4.38
2022-12-03T16:56:11.068Z,4.00
2022-12-03T17:00:15.269Z,5.80
2022-12-03T17:04:18.122Z,5.60
2022-12-03T17:08:20.889Z,5.30
2022-12-03T17:12:25.504Z,4.50
2022-12-03T17:16:28.383Z,5.20
2022-12-03T17:20:31.258Z,3.00
2022-12-03T17:24:33.998Z,4.20
2022-12-03T17:28:38.201Z,4.93
2022-12-03T17:32:41.071Z,3.67
2022-12-03T17:36:43.750Z,5.03
2022-12-03T17:40:46.468Z,4.18
2022-12-03T17:44:50.548Z,2.00
2022-12-03T17:48:53.228Z,4.47
2022-12-03T17:52:55.900Z,3.92
2022-12-03T17:56:58.908Z,3.58
2022-12-03T18:01:03.534Z,4.60
2022-12-03T18:05:06.870Z,3.97
2022-12-03T18:09:09.698Z,2.72
2022-12-03T18:13:12.391Z,2.38
2022-12-03T18:17:16.806Z,3.90
2022-12-03T18:21:19.512Z,3.28
2022-12-03T18:25:22.235Z,2.38
2022-12-03T18:29:24.982Z,4.80
2022-12-03T18:33:29.681Z,3.33
2022-12-03T18:37:33.663Z,4.13
2022-12-03T18:41:37.466Z,3.83
2022-12-03T18:45:40.255Z,2.03
2022-12-03T18:49:44.361Z,2.80
2022-12-03T18:53:47.301Z,3.03
2022-12-03T18:57:50.097Z,6.30
2022-12-03T19:01:53.008Z,3.90
2022-12-03T19:05:57.636Z,5.32
2022-12-03T19:10:00.415Z,5.88
2022-12-03T19:14:03.981Z,3.88
2022-12-03T19:18:07.475Z,6.18
2022-12-03T19:22:11.615Z,5.30
2022-12-03T19:26:14.999Z,5.78
2022-12-03T19:30:18.206Z,3.03
2022-12-03T19:34:21.433Z,4.22
2022-12-03T19:38:26.962Z,3.58
2022-12-03T19:42:31.203Z,3.17
2022-12-03T19:46:34.041Z,4.30
2022-12-03T19:50:36.834Z,3.30
2022-12-03T19:54:40.926Z,3.42
2022-12-03T19:58:45.838Z,3.67
2022-12-03T20:02:49.933Z,4.32
2022-12-03T20:06:52.682Z,5.20
2022-12-03T20:10:56.955Z,3.72
2022-12-03T20:14:59.636Z,3.90
2022-12-03T20:19:05.037Z,4.65
2022-12-03T20:23:07.973Z,2.65
2022-12-03T20:27:12.068Z,2.53
2022-12-03T20:31:17.828Z,2.65
2022-12-03T20:35:20.925Z,5.47
2022-12-03T20:39:23.804Z,4.88
2022-12-03T20:43:27.963Z,2.22
2022-12-03T20:47:30.640Z,3.00
2022-12-03T20:51:33.744Z,3.95
2022-12-03T20:55:36.521Z,3.72
2022-12-03T20:59:40.705Z,2.17
2022-12-03T21:03:43.619Z,4.35
2022-12-03T21:07:47.895Z,2.13
2022-12-03T21:11:50.718Z,1.85
2022-12-03T21:16:04.449Z,3.47
2022-12-03T21:20:08.433Z,3.08
2022-12-03T21:24:13.872Z,4.50
2022-12-03T21:28:16.986Z,4.03
2022-12-03T21:32:21.217Z,3.70
2022-12-03T21:36:24.982Z,4.10
2022-12-03T21:40:27.716Z,4.20
2022-12-03T21:44:30.507Z,4.85
2022-12-03T21:48:35.008Z,3.90
2022-12-03T21:52:37.909Z,4.28
2022-12-03T21:56:40.647Z,3.33
2022-12-03T22:00:43.349Z,3.70
2022-12-03T22:04:51.801Z,3.50
2022-12-03T22:08:54.573Z,4.43
2022-12-03T22:12:57.293Z,5.13
2022-12-03T22:17:00.154Z,2.95
2022-12-03T22:21:08.223Z,3.72
2022-12-03T22:25:10.981Z,3.58
2022-12-03T22:29:14.003Z,4.72
2022-12-03T22:33:16.705Z,3.30
2022-12-03T22:37:20.865Z,2.85
2022-12-03T22:41:23.557Z,2.88
2022-12-03T22:45:26.206Z,9.32
2022-12-03T22:49:29.338Z,6.40
2022-12-03T22:53:33.365Z,3.33
2022-12-03T22:57:36.070Z,3.38
2022-12-03T23:01:40.686Z,4.15
2022-12-03T23:05:43.388Z,3.97
2022-12-03T23:09:47.523Z,4.72
2022-12-03T23:13:50.287Z,4.18
2022-12-03T23:17:54.789Z,3.85
2022-12-03T23:21:57.460Z,4.78
2022-12-03T23:26:03.161Z,1.98
2022-12-03T23:30:07.948Z,2.80
2022-12-03T23:34:10.776Z,2.13
2022-12-03T23:38:13.741Z,4.72
2022-12-03T23:42:17.816Z,4.13
2022-12-03T23:46:23.394Z,4.03
2022-12-03T23:50:26.509Z,2.50
2022-12-03T23:54:29.254Z,4.28
2022-12-03T23:58:33.849Z,4.20
